createdAt,value
2022-08-16T00:01:56.566Z,23.20
2022-08-16T00:04:29.004Z,23.10
2022-08-16T00:06:57.863Z,23.10
2022-08-16T00:09:26.218Z,23.10
2022-08-16T00:11:56.068Z,23.10
2022-08-16T00:14:30.983Z,23.10
2022-08-16T00:17:11.702Z,23.00
2022-08-16T00:19:53.404Z,23.10
2022-08-16T00:22:24.812Z,23.10
2022-08-16T00:24:54.731Z,23.10
2022-08-16T00:27:25.066Z,23.10
2022-08-16T00:30:08.456Z,23.10
2022-08-16T00:32:43.852Z,23.00
2022-08-16T00:35:16.981Z,23.00
2022-08-16T00:37:58.462Z,23.00
2022-08-16T00:40:36.610Z,23.00
2022-08-16T00:43:19.379Z,23.00
2022-08-16T00:46:00.129Z,22.90
2022-08-16T00:48:31.965Z,22.90
2022-08-16T00:51:17.469Z,22.90
2022-08-16T00:53:46.577Z,22.90
2022-08-16T00:56:55.970Z,22.90
2022-08-16T00:59:15.262Z,22.90
2022-08-16T01:01:48.100Z,22.90
2022-08-16T01:04:29.480Z,22.90
2022-08-16T01:07:01.780Z,22.90
2022-08-16T01:09:33.413Z,22.90
2022-08-16T01:12:03.207Z,22.90
2022-08-16T01:14:35.679Z,22.90
2022-08-16T01:17:08.791Z,22.80
2022-08-16T01:19:42.296Z,22.80
2022-08-16T01:22:46.826Z,22.80
2022-08-16T01:25:15.938Z,22.80
2022-08-16T01:27:48.081Z,22.80
2022-08-16T01:30:26.105Z,22.80
2022-08-16T01:33:02.674Z,22.80
2022-08-16T01:35:52.886Z,22.80
2022-08-16T01:38:25.841Z,22.80
2022-08-16T01:41:02.274Z,22.70
2022-08-16T01:43:32.706Z,22.70
2022-08-16T01:46:38.019Z,22.70
2022-08-16T01:48:57.902Z,22.70
2022-08-16T01:51:29.847Z,22.70
2022-08-16T01:53:59.397Z,22.70
2022-08-16T01:56:38.752Z,22.70
2022-08-16T01:59:15.777Z,22.70
2022-08-16T02:01:52.605Z,22.70
2022-08-16T02:04:40.032Z,22.60
2022-08-16T02:07:18.437Z,22.60
2022-08-16T02:09:58.898Z,22.60
2022-08-16T02:12:51.445Z,22.60
2022-08-16T02:15:26.521Z,22.60
2022-08-16T02:17:58.668Z,22.60
2022-08-16T02:20:33.916Z,22.50
2022-08-16T02:23:06.832Z,22.60
2022-08-16T02:25:51.003Z,22.50
2022-08-16T02:28:23.529Z,22.50
2022-08-16T02:30:53.316Z,22.50
2022-08-16T02:33:24.881Z,22.50
2022-08-16T02:36:14.204Z,22.50
2022-08-16T02:38:43.499Z,22.40
2022-08-16T02:41:12.134Z,22.40
2022-08-16T02:43:44.268Z,22.40
2022-08-16T02:46:12.667Z,22.40
2022-08-16T02:48:49.177Z,22.40
2022-08-16T02:51:19.431Z,22.40
2022-08-16T02:53:52.331Z,22.40
2022-08-16T02:56:22.701Z,22.40
2022-08-16T02:58:54.689Z,22.30
2022-08-16T03:01:36.480Z,22.40
2022-08-16T03:04:29.073Z,22.30
2022-08-16T03:06:59.149Z,22.30
2022-08-16T03:09:47.865Z,22.30
2022-08-16T03:12:20.439Z,22.30
2022-08-16T03:15:00.155Z,22.20
2022-08-16T03:17:32.513Z,22.20
2022-08-16T03:20:04.599Z,22.20
2022-08-16T03:22:37.523Z,22.20
2022-08-16T03:25:16.012Z,22.20
2022-08-16T03:27:53.957Z,22.20
2022-08-16T03:30:33.635Z,22.10
2022-08-16T03:33:07.545Z,22.10
2022-08-16T03:35:42.995Z,22.10
2022-08-16T03:38:38.670Z,22.10
2022-08-16T03:41:14.321Z,22.10
2022-08-16T03:43:57.069Z,22.00
2022-08-16T03:46:47.218Z,22.10
2022-08-16T03:49:22.522Z,22.00
2022-08-16T03:51:54.556Z,22.00
2022-08-16T03:54:28.538Z,22.00
2022-08-16T03:56:59.327Z,22.00
2022-08-16T03:59:30.446Z,22.00
2022-08-16T04:02:10.566Z,22.00
2022-08-16T04:04:51.918Z,22.00
2022-08-16T04:07:23.083Z,22.00
2022-08-16T04:09:53.969Z,21.90
2022-08-16T04:12:54.510Z,21.90
2022-08-16T04:15:17.207Z,21.90
2022-08-16T04:17:58.472Z,21.80
2022-08-16T04:20:34.018Z,21.80
2022-08-16T04:23:08.110Z,21.80
2022-08-16T04:25:38.851Z,21.80
2022-08-16T04:28:51.688Z,21.80
2022-08-16T04:30:58.758Z,21.80
2022-08-16T04:33:28.610Z,21.80
2022-08-16T04:36:00.578Z,21.80
2022-08-16T04:38:31.057Z,21.80
2022-08-16T04:41:02.467Z,21.80
2022-08-16T04:43:38.306Z,21.80
2022-08-16T04:46:33.200Z,21.80
2022-08-16T04:49:09.656Z,21.80
2022-08-16T04:51:42.335Z,21.80
2022-08-16T04:54:11.378Z,21.80
2022-08-16T04:56:42.815Z,21.80
2022-08-16T04:59:17.051Z,21.70
2022-08-16T05:01:57.978Z,21.70
2022-08-16T05:04:31.310Z,21.80
2022-08-16T05:07:01.461Z,21.70
2022-08-16T05:09:54.351Z,21.70
2022-08-16T05:12:30.526Z,21.70
2022-08-16T05:15:02.438Z,21.70
2022-08-16T05:17:33.902Z,21.70
2022-08-16T05:20:45.089Z,21.60
2022-08-16T05:22:59.491Z,21.60
2022-08-16T05:25:40.688Z,21.70
2022-08-16T05:28:19.651Z,21.70
2022-08-16T05:30:54.197Z,21.70
2022-08-16T05:33:26.293Z,21.60
2022-08-16T05:35:59.451Z,21.60
2022-08-16T05:38:39.577Z,21.60
2022-08-16T05:41:13.997Z,21.70
2022-08-16T05:43:46.974Z,21.60
2022-08-16T05:46:30.375Z,21.70
2022-08-16T05:49:09.704Z,21.60
2022-08-16T05:51:45.718Z,21.60
2022-08-16T05:54:24.886Z,21.70
2022-08-16T05:56:57.758Z,21.70
2022-08-16T05:59:29.035Z,21.70
2022-08-16T06:01:59.343Z,21.70
2022-08-16T06:04:36.291Z,21.60
2022-08-16T06:07:26.276Z,21.60
2022-08-16T06:10:02.959Z,21.60
2022-08-16T06:12:35.621Z,21.60
2022-08-16T06:15:11.443Z,21.70
2022-08-16T06:17:44.792Z,21.60
2022-08-16T06:20:24.309Z,21.60
2022-08-16T06:23:16.780Z,21.60
2022-08-16T06:25:58.920Z,21.70
2022-08-16T06:28:35.658Z,21.80
2022-08-16T06:31:11.920Z,21.80
2022-08-16T06:33:44.581Z,21.90
2022-08-16T06:36:16.554Z,21.90
2022-08-16T06:38:56.927Z,22.00
2022-08-16T06:41:45.496Z,22.00
2022-08-16T06:44:40.819Z,22.10
2022-08-16T06:47:24.345Z,22.10
2022-08-16T06:50:28.960Z,22.10
2022-08-16T06:53:08.397Z,22.20
2022-08-16T06:55:44.584Z,22.30
2022-08-16T06:58:22.148Z,22.30
2022-08-16T07:00:59.956Z,22.40
2022-08-16T07:03:32.507Z,22.40
2022-08-16T07:06:04.291Z,22.50
2022-08-16T07:08:42.494Z,22.50
2022-08-16T07:11:12.658Z,22.60
2022-08-16T07:14:04.024Z,22.60
2022-08-16T07:16:41.865Z,22.70
2022-08-16T07:19:11.404Z,22.70
2022-08-16T07:21:46.590Z,22.80
2022-08-16T07:24:30.779Z,22.80
2022-08-16T07:27:08.628Z,22.90
2022-08-16T07:29:42.431Z,23.00
2022-08-16T07:32:12.278Z,23.00
2022-08-16T07:34:48.145Z,23.10
2022-08-16T07:37:18.052Z,23.10
2022-08-16T07:40:11.709Z,23.20
2022-08-16T07:42:46.136Z,23.30
2022-08-16T07:45:17.042Z,23.40
2022-08-16T07:47:51.311Z,23.40
2022-08-16T07:50:56.627Z,23.50
2022-08-16T07:53:09.750Z,23.50
2022-08-16T07:55:48.170Z,23.60
2022-08-16T07:58:34.400Z,23.60
2022-08-16T08:01:10.979Z,23.70
2022-08-16T08:03:48.705Z,23.80
2022-08-16T08:06:24.685Z,23.90
2022-08-16T08:08:57.420Z,23.90
2022-08-16T08:11:31.167Z,24.00
2022-08-16T08:14:06.823Z,24.10
2022-08-16T08:16:45.264Z,24.20
2022-08-16T08:19:21.638Z,24.20
2022-08-16T08:21:58.482Z,24.30
2022-08-16T08:25:09.302Z,24.30
2022-08-16T08:27:44.195Z,24.40
2022-08-16T08:30:50.050Z,24.50
2022-08-16T08:33:04.405Z,24.60
2022-08-16T08:35:36.974Z,24.70
2022-08-16T08:38:08.863Z,24.80
2022-08-16T08:40:43.071Z,24.90
2022-08-16T08:43:17.871Z,25.00
2022-08-16T08:45:56.981Z,25.00
2022-08-16T08:48:35.078Z,25.10
2022-08-16T08:51:11.608Z,25.10
2022-08-16T08:54:00.123Z,25.20
2022-08-16T08:56:32.218Z,25.20
2022-08-16T08:59:13.640Z,25.30
2022-08-16T09:01:57.014Z,25.40
2022-08-16T09:04:30.298Z,25.50
2022-08-16T09:07:01.303Z,25.60
2022-08-16T09:09:34.210Z,25.70
2022-08-16T09:12:31.224Z,25.80
2022-08-16T09:15:14.473Z,25.90
2022-08-16T09:17:51.446Z,26.10
2022-08-16T09:20:25.555Z,26.10
2022-08-16T09:22:55.187Z,26.20
2022-08-16T09:25:35.350Z,26.30
2022-08-16T09:29:15.018Z,26.40
2022-08-16T09:31:17.571Z,26.50
2022-08-16T09:33:51.872Z,26.60
2022-08-16T09:36:32.123Z,26.70
2022-08-16T09:39:03.268Z,26.90
2022-08-16T09:41:32.742Z,27.00
2022-08-16T09:45:10.996Z,27.10
2022-08-16T09:46:57.839Z,27.20
2022-08-16T09:49:36.797Z,27.30
2022-08-16T09:52:05.926Z,27.40
2022-08-16T09:54:34.374Z,27.40
2022-08-16T09:57:03.217Z,27.50
2022-08-16T09:59:38.725Z,27.60
2022-08-16T10:02:26.641Z,27.60
2022-08-16T10:04:58.762Z,27.70
2022-08-16T10:07:44.171Z,27.80
2022-08-16T10:10:18.885Z,27.90
2022-08-16T10:13:14.269Z,28.00
2022-08-16T10:15:55.427Z,28.20
2022-08-16T10:18:56.334Z,28.40
2022-08-16T10:21:17.292Z,28.40
2022-08-16T10:23:48.520Z,28.50
2022-08-16T10:27:18.630Z,28.50
2022-08-16T10:29:07.474Z,28.60
2022-08-16T10:31:44.476Z,28.60
2022-08-16T10:34:30.999Z,28.80
2022-08-16T10:37:02.615Z,28.90
2022-08-16T10:39:40.718Z,29.00
2022-08-16T10:42:13.247Z,29.10
2022-08-16T10:44:42.433Z,29.20
2022-08-16T10:47:11.745Z,29.20
2022-08-16T10:49:40.135Z,29.30
2022-08-16T10:52:18.792Z,29.20
2022-08-16T10:57:42.353Z,29.20
2022-08-16T11:00:21.050Z,29.40
2022-08-16T11:02:59.079Z,29.50
2022-08-16T11:05:59.497Z,29.60
2022-08-16T11:08:36.431Z,29.60
2022-08-16T11:11:11.382Z,29.60
2022-08-16T11:14:05.929Z,29.60
2022-08-16T11:19:24.977Z,29.70
2022-08-16T11:22:38.523Z,29.70
2022-08-16T11:24:46.608Z,29.70
2022-08-16T11:27:35.990Z,29.70
2022-08-16T11:30:08.973Z,29.80
2022-08-16T11:32:38.007Z,30.00
2022-08-16T11:35:10.336Z,30.00
2022-08-16T11:40:33.131Z,30.20
2022-08-16T11:43:04.111Z,30.30
2022-08-16T11:45:36.173Z,30.40
2022-08-16T11:48:06.834Z,30.40
2022-08-16T11:50:38.081Z,30.40
2022-08-16T11:53:08.365Z,30.40
2022-08-16T11:55:44.124Z,30.50
2022-08-16T11:58:15.028Z,30.60
2022-08-16T12:00:51.817Z,30.60
2022-08-16T12:03:34.418Z,30.60
2022-08-16T12:06:10.683Z,30.60
2022-08-16T12:08:40.303Z,30.70
2022-08-16T12:11:11.289Z,30.80
2022-08-16T12:13:40.942Z,30.80
2022-08-16T12:16:10.762Z,30.90
2022-08-16T12:18:40.151Z,30.90
2022-08-16T12:21:10.638Z,30.90
2022-08-16T12:23:41.789Z,31.00
2022-08-16T12:26:13.808Z,31.00
2022-08-16T12:28:54.546Z,31.10
2022-08-16T12:31:24.909Z,31.00
2022-08-16T12:33:54.202Z,31.00
2022-08-16T12:36:26.157Z,30.90
2022-08-16T12:39:00.623Z,30.80
2022-08-16T12:41:34.930Z,30.90
2022-08-16T12:44:06.237Z,31.00
2022-08-16T12:46:35.562Z,31.00
2022-08-16T12:49:08.328Z,31.10
2022-08-16T12:51:58.617Z,31.20
2022-08-16T12:54:29.250Z,31.20
2022-08-16T12:57:02.337Z,31.30
2022-08-16T12:59:31.006Z,31.40
2022-08-16T13:02:02.679Z,31.50
2022-08-16T13:04:35.519Z,31.50
2022-08-16T13:07:08.478Z,31.70
2022-08-16T13:09:50.058Z,31.70
2022-08-16T13:12:28.135Z,31.80
2022-08-16T13:14:56.947Z,31.80
2022-08-16T13:17:29.704Z,31.80
2022-08-16T13:20:08.599Z,31.70
2022-08-16T13:25:17.416Z,31.50
2022-08-16T13:28:03.275Z,31.60
2022-08-16T13:30:41.870Z,31.70
2022-08-16T13:33:18.271Z,31.90
2022-08-16T13:35:58.115Z,32.00
2022-08-16T13:38:37.101Z,32.10
2022-08-16T13:41:10.811Z,32.20
2022-08-16T13:43:41.906Z,32.20
2022-08-16T13:46:12.895Z,32.20
2022-08-16T13:48:44.354Z,32.30
2022-08-16T13:51:18.017Z,32.40
2022-08-16T13:53:54.619Z,32.40
2022-08-16T13:56:37.008Z,32.50
2022-08-16T13:59:14.311Z,32.60
2022-08-16T14:01:55.913Z,32.70
2022-08-16T14:04:29.742Z,32.80
2022-08-16T14:07:01.425Z,32.80
2022-08-16T14:09:36.528Z,32.90
2022-08-16T14:12:18.233Z,32.90
2022-08-16T14:14:48.709Z,32.90
2022-08-16T14:17:23.477Z,32.80
2022-08-16T14:19:54.378Z,32.80
2022-08-16T14:22:35.621Z,32.90
2022-08-16T14:25:10.772Z,33.00
2022-08-16T14:27:42.190Z,32.90
2022-08-16T14:30:15.550Z,32.90
2022-08-16T14:32:46.943Z,32.90
2022-08-16T14:35:22.253Z,32.80
2022-08-16T14:38:06.061Z,32.70
2022-08-16T14:40:35.478Z,32.60
2022-08-16T14:43:06.938Z,32.50
2022-08-16T14:45:37.937Z,32.50
2022-08-16T14:48:07.752Z,32.40
2022-08-16T14:50:37.337Z,32.20
2022-08-16T14:53:09.214Z,32.10
2022-08-16T14:55:41.118Z,32.10
2022-08-16T14:58:18.748Z,32.20
2022-08-16T15:00:51.134Z,32.20
2022-08-16T15:03:23.273Z,32.20
2022-08-16T15:05:53.884Z,32.30
2022-08-16T15:08:36.180Z,32.30
2022-08-16T15:11:07.700Z,32.30
2022-08-16T15:13:36.593Z,32.20
2022-08-16T15:16:09.097Z,32.30
2022-08-16T15:18:37.345Z,32.30
2022-08-16T15:21:08.541Z,32.40
2022-08-16T15:23:37.166Z,32.50
2022-08-16T15:26:13.649Z,32.40
2022-08-16T15:29:00.171Z,32.40
2022-08-16T15:31:29.737Z,32.50
2022-08-16T15:33:58.386Z,32.40
2022-08-16T15:36:29.021Z,32.50
2022-08-16T15:39:07.743Z,32.50
2022-08-16T15:42:01.671Z,32.60
2022-08-16T15:44:44.631Z,32.70
2022-08-16T15:47:25.103Z,32.70
2022-08-16T15:49:56.004Z,32.80
2022-08-16T15:52:29.179Z,32.80
2022-08-16T15:54:59.280Z,32.90
2022-08-16T15:57:30.304Z,33.00
2022-08-16T16:00:14.943Z,32.90
2022-08-16T16:02:49.551Z,33.00
2022-08-16T16:05:19.543Z,32.90
2022-08-16T16:07:56.319Z,33.00
2022-08-16T16:10:29.683Z,33.00
2022-08-16T16:12:59.727Z,33.00
2022-08-16T16:15:32.835Z,33.00
2022-08-16T16:18:09.690Z,32.90
2022-08-16T16:20:39.690Z,32.80
2022-08-16T16:23:11.349Z,32.70
2022-08-16T16:25:43.756Z,32.60
2022-08-16T16:29:05.245Z,32.60
2022-08-16T16:31:07.308Z,32.50
2022-08-16T16:33:42.040Z,32.40
2022-08-16T16:36:20.828Z,32.40
2022-08-16T16:38:53.561Z,32.20
2022-08-16T16:41:25.423Z,32.10
2022-08-16T16:44:00.791Z,31.90
2022-08-16T16:46:42.898Z,31.70
2022-08-16T16:49:14.751Z,31.60
2022-08-16T16:51:44.650Z,31.50
2022-08-16T16:54:27.816Z,31.40
2022-08-16T16:56:57.822Z,31.30
2022-08-16T16:59:28.074Z,31.20
2022-08-16T17:02:01.366Z,31.10
2022-08-16T17:04:48.128Z,31.00
2022-08-16T17:07:16.435Z,30.90
2022-08-16T17:09:47.364Z,30.80
2022-08-16T17:12:24.528Z,30.70
2022-08-16T17:14:53.762Z,30.60
2022-08-16T17:17:22.640Z,30.50
2022-08-16T17:19:54.540Z,30.50
2022-08-16T17:22:23.237Z,30.40
2022-08-16T17:24:54.550Z,30.30
2022-08-16T17:27:32.870Z,30.20
2022-08-16T17:30:03.527Z,30.10
2022-08-16T17:32:48.911Z,30.00
2022-08-16T17:35:22.907Z,29.90
2022-08-16T17:37:54.291Z,29.90
2022-08-16T17:40:41.635Z,29.80
2022-08-16T17:43:16.334Z,29.70
2022-08-16T17:45:45.552Z,29.60
2022-08-16T17:48:16.425Z,29.50
2022-08-16T17:50:48.638Z,29.50
2022-08-16T17:53:26.107Z,29.40
2022-08-16T17:55:55.203Z,29.30
2022-08-16T17:58:26.398Z,29.30
2022-08-16T18:00:59.693Z,29.20
2022-08-16T18:04:07.603Z,29.20
2022-08-16T18:06:26.597Z,29.10
2022-08-16T18:09:02.643Z,29.00
2022-08-16T18:11:35.327Z,28.90
2022-08-16T18:14:03.877Z,28.90
2022-08-16T18:16:32.389Z,28.80
2022-08-16T18:19:00.682Z,28.70
2022-08-16T18:21:47.899Z,28.60
2022-08-16T18:24:19.571Z,28.50
2022-08-16T18:26:50.274Z,28.40
2022-08-16T18:29:20.522Z,28.30
2022-08-16T18:31:50.866Z,28.20
2022-08-16T18:34:20.624Z,28.20
2022-08-16T18:36:50.930Z,28.10
2022-08-16T18:39:19.173Z,28.00
2022-08-16T18:41:47.913Z,27.90
2022-08-16T18:44:26.773Z,27.90
2022-08-16T18:46:56.443Z,27.80
2022-08-16T18:49:24.827Z,27.70
2022-08-16T18:51:57.803Z,27.60
2022-08-16T18:54:28.097Z,27.60
2022-08-16T18:56:58.955Z,27.50
2022-08-16T18:59:29.039Z,27.40
2022-08-16T19:02:00.307Z,27.30
2022-08-16T19:04:55.237Z,27.20
2022-08-16T19:07:30.944Z,27.20
2022-08-16T19:10:02.875Z,27.10
2022-08-16T19:12:37.694Z,27.00
2022-08-16T19:15:15.891Z,26.90
2022-08-16T19:17:47.050Z,26.90
2022-08-16T19:20:17.950Z,26.80
2022-08-16T19:23:10.589Z,26.70
2022-08-16T19:25:47.225Z,26.60
2022-08-16T19:28:49.051Z,26.60
2022-08-16T19:31:09.070Z,26.50
2022-08-16T19:33:38.768Z,26.40
2022-08-16T19:36:07.370Z,26.30
2022-08-16T19:38:41.415Z,26.30
2022-08-16T19:41:10.105Z,26.20
2022-08-16T19:43:38.353Z,26.20
2022-08-16T19:46:07.113Z,26.10
2022-08-16T19:48:38.348Z,26.10
2022-08-16T19:51:10.142Z,26.00
2022-08-16T19:53:38.372Z,26.00
2022-08-16T19:56:08.351Z,25.90
2022-08-16T19:58:36.857Z,25.80
2022-08-16T20:01:05.425Z,25.80
2022-08-16T20:03:36.622Z,25.70
2022-08-16T20:06:05.303Z,25.70
2022-08-16T20:08:36.168Z,25.70
2022-08-16T20:11:08.087Z,25.60
2022-08-16T20:13:38.587Z,25.50
2022-08-16T20:16:07.040Z,25.50
2022-08-16T20:18:38.804Z,25.50
2022-08-16T20:21:07.407Z,25.40
2022-08-16T20:23:35.606Z,25.40
2022-08-16T20:26:03.832Z,25.30
2022-08-16T20:28:47.701Z,25.20
2022-08-16T20:31:24.191Z,25.20
2022-08-16T20:33:53.043Z,25.20
2022-08-16T20:36:21.299Z,25.20
2022-08-16T20:38:50.171Z,25.10
2022-08-16T20:41:18.678Z,25.10
2022-08-16T20:43:48.555Z,25.00
2022-08-16T20:46:19.153Z,25.00
2022-08-16T20:48:47.453Z,24.90
2022-08-16T20:51:15.783Z,24.90
2022-08-16T20:53:45.240Z,24.90
2022-08-16T20:56:16.075Z,24.80
2022-08-16T20:58:48.139Z,24.80
2022-08-16T21:01:16.461Z,24.80
2022-08-16T21:03:47.230Z,24.80
2022-08-16T21:06:15.474Z,24.70
2022-08-16T21:08:52.433Z,24.70
2022-08-16T21:11:28.382Z,24.70
2022-08-16T21:14:00.592Z,24.60
2022-08-16T21:16:29.132Z,24.60
2022-08-16T21:18:57.812Z,24.50
2022-08-16T21:21:32.089Z,24.50
2022-08-16T21:24:01.928Z,24.40
2022-08-16T21:26:30.209Z,24.40
2022-08-16T21:28:59.746Z,24.40
2022-08-16T21:31:30.893Z,24.40
2022-08-16T21:33:59.062Z,24.30
2022-08-16T21:36:35.232Z,24.30
2022-08-16T21:39:07.400Z,24.30
2022-08-16T21:41:38.319Z,24.30
2022-08-16T21:44:08.380Z,24.20
2022-08-16T21:46:39.058Z,24.20
2022-08-16T21:49:07.260Z,24.20
2022-08-16T21:51:36.250Z,24.10
2022-08-16T21:54:05.040Z,24.10
2022-08-16T21:56:33.282Z,24.00
2022-08-16T21:59:01.486Z,24.00
2022-08-16T22:01:31.119Z,24.00
2022-08-16T22:04:37.361Z,23.90
2022-08-16T22:06:47.625Z,23.90
2022-08-16T22:09:16.534Z,23.80
2022-08-16T22:11:46.896Z,23.80
2022-08-16T22:14:18.113Z,23.80
2022-08-16T22:16:49.929Z,23.70
2022-08-16T22:19:18.461Z,23.70
2022-08-16T22:21:46.730Z,23.70
2022-08-16T22:24:14.924Z,23.70
2022-08-16T22:26:46.168Z,23.70
2022-08-16T22:29:15.693Z,23.70
2022-08-16T22:31:46.594Z,23.70
2022-08-16T22:34:16.190Z,23.70
2022-08-16T22:36:44.621Z,23.60
2022-08-16T22:39:15.406Z,23.60
2022-08-16T22:41:45.582Z,23.50
2022-08-16T22:44:14.107Z,23.50
2022-08-16T22:46:45.176Z,23.50
2022-08-16T22:49:15.079Z,23.50
2022-08-16T22:51:43.315Z,23.50
2022-08-16T22:54:45.823Z,23.40
2022-08-16T22:56:59.631Z,23.30
2022-08-16T22:59:32.038Z,23.30
2022-08-16T23:02:05.935Z,23.30
2022-08-16T23:04:37.977Z,23.20
2022-08-16T23:07:08.443Z,23.20
2022-08-16T23:09:36.667Z,23.10
2022-08-16T23:12:08.318Z,23.10
2022-08-16T23:14:39.119Z,23.10
2022-08-16T23:17:07.568Z,23.00
2022-08-16T23:19:37.739Z,23.00
2022-08-16T23:22:08.413Z,23.00
2022-08-16T23:24:47.707Z,23.00
2022-08-16T23:27:27.348Z,23.00
2022-08-16T23:30:02.028Z,22.90
2022-08-16T23:32:30.197Z,22.90
2022-08-16T23:35:02.964Z,22.90
2022-08-16T23:37:31.147Z,22.90
2022-08-16T23:40:02.419Z,22.90
2022-08-16T23:42:52.582Z,22.90
2022-08-16T23:45:19.533Z,22.80
2022-08-16T23:47:47.828Z,22.80
2022-08-16T23:50:17.724Z,22.80
2022-08-16T23:53:00.382Z,22.80
2022-08-16T23:55:31.064Z,22.70
2022-08-16T23:58:01.818Z,22.70
